RUT weather

Rutland - Southern Vermont Regional Airport
Rutland, Vermont, United States

Public forecast

Using degrees Fahrenheit for public forecast. Weather courtesy of forecast.io.

METAR (pilot weather report)

Retrieved 2019/04/25 20:56 UTC (51 minutes ago):

KRUT 252056Z AUTO 34005KT 10SM CLR 16/04 A2988 RMK AO2 SLP140 T01610039 58011 $

TAF (pilot weather forecast)

Retrieved 2019/04/25 18:33 UTC (3 hours ago):

TAF KRUT 251731Z 2518/2618 VRB04KT P6SM SKC FM260100 13007KT P6SM SKC FM260900 14009KT P6SM VCSH SCT035 OVC070 FM261200 14014G22KT P6SM -RA OVC028